createdAt,value
2023-01-25T00:00:01.509Z,10.07
2023-01-25T00:02:28.347Z,10.05
2023-01-25T00:04:55.085Z,10.70
2023-01-25T00:07:21.672Z,11.13
2023-01-25T00:09:48.409Z,11.55
2023-01-25T00:12:15.001Z,11.90
2023-01-25T00:14:41.745Z,10.77
2023-01-25T00:17:08.549Z,10.57
2023-01-25T00:19:35.099Z,10.55
2023-01-25T00:22:01.640Z,10.30
2023-01-25T00:24:28.363Z,11.18
2023-01-25T00:26:55.017Z,11.30
2023-01-25T00:29:21.564Z,11.25
2023-01-25T00:32:17.815Z,12.35
2023-01-25T00:35:22.059Z,12.82
2023-01-25T00:37:52.259Z,12.38
2023-01-25T00:40:19.099Z,11.30
2023-01-25T00:42:45.870Z,10.98
2023-01-25T00:45:13.065Z,10.30
2023-01-25T00:47:40.029Z,11.40
2023-01-25T00:50:07.823Z,10.75
2023-01-25T00:53:30.818Z,10.60
2023-01-25T00:56:34.423Z,11.23
2023-01-25T00:59:01.144Z,11.50
2023-01-25T01:01:29.343Z,10.75
2023-01-25T01:03:55.930Z,10.48
2023-01-25T01:07:00.254Z,10.75
2023-01-25T01:09:27.058Z,10.45
2023-01-25T01:11:54.359Z,10.48
2023-01-25T01:15:18.021Z,9.63
2023-01-25T01:18:40.954Z,11.27
2023-01-25T01:22:03.991Z,10.85
2023-01-25T01:24:30.609Z,11.70
2023-01-25T01:26:57.334Z,10.48
2023-01-25T01:29:24.119Z,10.80
2023-01-25T01:31:52.559Z,11.18
2023-01-25T01:34:19.488Z,11.20
2023-01-25T01:36:46.346Z,11.35
2023-01-25T01:39:13.120Z,11.23
2023-01-25T01:41:39.838Z,11.48
2023-01-25T01:44:10.501Z,11.48
2023-01-25T01:46:39.541Z,10.73
2023-01-25T01:49:20.881Z,11.30
2023-01-25T01:52:11.086Z,11.40
2023-01-25T01:54:43.359Z,10.65
2023-01-25T01:57:36.389Z,11.43
2023-01-25T02:00:29.239Z,11.38
2023-01-25T02:02:56.743Z,10.77
2023-01-25T02:05:26.735Z,11.48
2023-01-25T02:07:55.482Z,11.00
2023-01-25T02:10:24.065Z,11.18
2023-01-25T02:12:54.153Z,10.25
2023-01-25T02:15:20.943Z,10.82
2023-01-25T02:17:48.820Z,11.38
2023-01-25T02:20:28.998Z,11.07
2023-01-25T02:23:07.264Z,11.10
2023-01-25T02:25:33.880Z,10.80
2023-01-25T02:28:18.459Z,10.85
2023-01-25T02:30:45.741Z,10.05
2023-01-25T02:33:12.975Z,10.07
2023-01-25T02:35:53.772Z,9.50
2023-01-25T02:38:21.300Z,9.63
2023-01-25T02:40:58.805Z,9.27
2023-01-25T02:43:29.784Z,9.57
2023-01-25T02:46:10.832Z,9.15
2023-01-25T02:48:37.614Z,9.15
2023-01-25T02:51:08.357Z,9.38
2023-01-25T02:53:35.294Z,9.02
2023-01-25T02:56:02.333Z,9.27
2023-01-25T02:58:29.026Z,8.88
2023-01-25T03:00:57.475Z,8.98
2023-01-25T03:03:24.207Z,9.50
2023-01-25T03:05:50.967Z,8.77
2023-01-25T03:08:17.684Z,8.82
2023-01-25T03:10:45.328Z,10.27
2023-01-25T03:13:12.003Z,8.52
2023-01-25T03:15:38.742Z,9.02
2023-01-25T03:18:05.817Z,9.48
2023-01-25T03:20:32.724Z,9.68
2023-01-25T03:22:59.319Z,9.43
2023-01-25T03:25:26.935Z,10.50
2023-01-25T03:27:54.149Z,11.10
2023-01-25T03:30:20.704Z,10.07
2023-01-25T03:32:47.482Z,9.77
2023-01-25T03:35:14.047Z,10.68
2023-01-25T03:37:40.674Z,10.18
2023-01-25T03:40:08.053Z,10.95
2023-01-25T03:42:34.597Z,11.20
2023-01-25T03:45:01.365Z,10.25
2023-01-25T03:47:28.523Z,11.98
2023-01-25T03:49:55.223Z,11.60
2023-01-25T03:52:24.096Z,11.48
2023-01-25T03:54:50.638Z,11.93
2023-01-25T03:57:17.312Z,11.52
2023-01-25T03:59:43.854Z,11.05
2023-01-25T04:02:12.666Z,11.98
2023-01-25T04:04:39.243Z,11.02
2023-01-25T04:07:05.816Z,11.45
2023-01-25T04:09:32.420Z,11.30
2023-01-25T04:11:59.066Z,11.00
2023-01-25T04:14:42.501Z,12.20
2023-01-25T04:17:10.795Z,12.10
2023-01-25T04:19:37.729Z,11.85
2023-01-25T04:22:04.451Z,10.85
2023-01-25T04:24:31.236Z,10.93
2023-01-25T04:26:58.103Z,11.48
2023-01-25T04:29:39.151Z,11.00
2023-01-25T04:32:07.112Z,11.52
2023-01-25T04:34:33.788Z,12.25
2023-01-25T04:37:00.509Z,12.05
2023-01-25T04:39:27.155Z,12.80
2023-01-25T04:41:53.725Z,11.90
2023-01-25T04:44:20.285Z,12.60
2023-01-25T04:46:46.936Z,12.35
2023-01-25T04:49:13.731Z,12.90
2023-01-25T04:51:41.532Z,12.50
2023-01-25T04:54:08.210Z,12.32
2023-01-25T04:56:35.412Z,11.85
2023-01-25T04:59:02.088Z,12.55
2023-01-25T05:01:28.748Z,12.15
2023-01-25T05:03:55.482Z,12.63
2023-01-25T05:06:22.121Z,11.55
2023-01-25T05:08:48.753Z,11.38
2023-01-25T05:11:15.340Z,11.63
2023-01-25T05:13:41.923Z,11.50
2023-01-25T05:16:09.164Z,11.82
2023-01-25T05:18:47.978Z,11.90
2023-01-25T05:21:34.400Z,12.50
2023-01-25T05:24:01.286Z,13.15
2023-01-25T05:26:46.653Z,12.38
2023-01-25T05:29:13.460Z,11.88
2023-01-25T05:31:40.280Z,11.45
2023-01-25T05:34:08.272Z,11.45
2023-01-25T05:36:35.008Z,11.75
2023-01-25T05:39:01.892Z,12.23
2023-01-25T05:41:30.309Z,10.95
2023-01-25T05:43:57.031Z,11.80
2023-01-25T05:46:23.789Z,11.48
2023-01-25T05:48:50.471Z,11.80
2023-01-25T05:51:17.052Z,11.35
2023-01-25T05:53:43.701Z,11.77
2023-01-25T05:56:10.936Z,13.38
2023-01-25T05:58:38.665Z,12.48
2023-01-25T06:01:07.281Z,12.52
2023-01-25T06:03:34.227Z,11.95
2023-01-25T06:06:02.802Z,11.48
2023-01-25T06:08:30.608Z,11.52
2023-01-25T06:10:57.958Z,13.50
2023-01-25T06:13:25.157Z,11.68
2023-01-25T06:15:53.180Z,12.73
2023-01-25T06:18:20.299Z,12.48
2023-01-25T06:20:47.063Z,13.38
2023-01-25T06:23:13.964Z,13.48
2023-01-25T06:25:40.623Z,13.93
2023-01-25T06:28:07.294Z,12.57
2023-01-25T06:30:34.656Z,12.63
2023-01-25T06:33:02.183Z,13.20
2023-01-25T06:35:30.952Z,12.85
2023-01-25T06:37:58.098Z,12.40
2023-01-25T06:40:25.718Z,11.82
2023-01-25T06:42:52.369Z,12.90
2023-01-25T06:45:18.986Z,13.70
2023-01-25T06:47:46.727Z,13.32
2023-01-25T06:50:19.661Z,13.75
2023-01-25T06:52:54.800Z,13.25
2023-01-25T06:57:48.423Z,19.00
2023-01-25T07:00:16.222Z,15.25
2023-01-25T07:02:42.926Z,16.15
2023-01-25T07:05:10.119Z,14.45
2023-01-25T07:07:37.061Z,13.88
2023-01-25T07:10:03.993Z,15.00
2023-01-25T07:12:31.046Z,15.25
2023-01-25T07:14:57.815Z,14.45
2023-01-25T07:17:24.426Z,12.88
2023-01-25T07:19:51.089Z,14.13
2023-01-25T07:22:17.982Z,14.10
2023-01-25T07:24:49.896Z,13.75
2023-01-25T07:27:17.084Z,14.02
2023-01-25T07:29:43.892Z,14.15
2023-01-25T07:32:13.731Z,14.23
2023-01-25T07:34:40.519Z,14.70
2023-01-25T07:37:07.311Z,14.40
2023-01-25T07:39:33.954Z,16.95
2023-01-25T07:42:00.635Z,15.98
2023-01-25T07:44:27.386Z,14.80
2023-01-25T07:46:57.970Z,15.18
2023-01-25T07:49:24.690Z,15.20
2023-01-25T07:51:51.370Z,14.93
2023-01-25T07:54:18.117Z,13.30
2023-01-25T07:56:44.916Z,14.57
2023-01-25T07:59:11.814Z,14.98
2023-01-25T08:01:39.858Z,14.73
2023-01-25T08:04:07.191Z,14.48
2023-01-25T08:06:38.607Z,15.18
2023-01-25T08:09:13.080Z,13.15
2023-01-25T08:11:39.744Z,13.90
2023-01-25T08:14:06.509Z,14.65
2023-01-25T08:16:33.309Z,15.88
2023-01-25T08:19:03.035Z,14.77
2023-01-25T08:21:32.881Z,15.50
2023-01-25T08:24:01.675Z,14.90
2023-01-25T08:26:29.044Z,15.73
2023-01-25T08:28:56.719Z,14.82
2023-01-25T08:31:26.519Z,15.82
2023-01-25T08:33:54.031Z,14.90
2023-01-25T08:36:23.936Z,14.98
2023-01-25T08:38:55.875Z,15.02
2023-01-25T08:41:23.765Z,16.25
2023-01-25T08:43:52.557Z,15.63
2023-01-25T08:46:19.886Z,15.38
2023-01-25T08:48:46.617Z,14.57
2023-01-25T08:51:16.036Z,14.48
2023-01-25T08:53:42.977Z,16.65
2023-01-25T08:56:12.142Z,14.90
2023-01-25T08:58:41.647Z,15.68
2023-01-25T09:01:10.879Z,16.40
2023-01-25T09:03:44.028Z,15.63
2023-01-25T09:06:11.559Z,14.73
2023-01-25T09:08:39.035Z,16.08
2023-01-25T09:11:08.638Z,17.58
2023-01-25T09:13:35.724Z,16.65
2023-01-25T09:16:09.825Z,18.85
2023-01-25T09:18:37.919Z,16.40
2023-01-25T09:21:09.256Z,18.20
2023-01-25T09:23:50.280Z,15.75
2023-01-25T09:26:23.394Z,16.58
2023-01-25T09:28:52.504Z,15.77
2023-01-25T09:31:23.233Z,15.05
2023-01-25T09:33:52.309Z,14.88
2023-01-25T09:36:19.726Z,15.23
2023-01-25T09:38:46.418Z,16.38
2023-01-25T09:41:42.147Z,15.13
2023-01-25T09:44:15.513Z,15.10
2023-01-25T09:46:56.389Z,14.55
2023-01-25T09:49:43.827Z,16.55
2023-01-25T09:52:48.203Z,16.63
2023-01-25T09:55:18.530Z,16.00
2023-01-25T09:57:47.930Z,15.30
2023-01-25T10:00:34.893Z,14.85
2023-01-25T10:03:10.544Z,14.90
2023-01-25T10:05:46.577Z,16.40
2023-01-25T10:08:51.510Z,16.75
2023-01-25T10:11:27.827Z,15.48
2023-01-25T10:13:58.169Z,16.33
2023-01-25T10:16:33.256Z,15.30
2023-01-25T10:19:22.462Z,16.65
2023-01-25T10:21:59.694Z,17.17
2023-01-25T10:24:50.997Z,17.25
2023-01-25T10:27:26.519Z,18.20
2023-01-25T10:29:57.683Z,19.20
2023-01-25T10:32:32.361Z,17.40
2023-01-25T10:35:17.535Z,17.50
2023-01-25T10:37:50.804Z,20.10
2023-01-25T10:40:26.808Z,17.73
2023-01-25T10:43:02.724Z,16.88
2023-01-25T10:45:29.361Z,15.45
2023-01-25T10:48:03.348Z,17.15
2023-01-25T10:50:41.071Z,18.33
2023-01-25T10:53:30.877Z,18.23
2023-01-25T10:56:13.195Z,17.27
2023-01-25T10:58:48.722Z,16.63
2023-01-25T11:01:31.503Z,17.65
2023-01-25T11:03:59.369Z,18.52
2023-01-25T11:06:30.388Z,16.90
2023-01-25T11:08:57.013Z,17.38
2023-01-25T11:11:26.693Z,16.45
2023-01-25T11:13:55.249Z,16.00
2023-01-25T11:16:32.070Z,15.90
2023-01-25T11:19:00.442Z,17.17
2023-01-25T11:21:32.954Z,17.30
2023-01-25T11:24:11.600Z,16.60
2023-01-25T11:26:40.791Z,16.95
2023-01-25T11:29:15.209Z,16.50
2023-01-25T11:31:47.910Z,16.95
2023-01-25T11:34:25.010Z,18.23
2023-01-25T11:37:16.427Z,18.13
2023-01-25T11:39:58.164Z,16.50
2023-01-25T11:42:59.383Z,18.75
2023-01-25T11:45:41.981Z,17.13
2023-01-25T11:48:35.353Z,17.58
2023-01-25T11:51:20.791Z,16.65
2023-01-25T11:56:53.354Z,21.35
2023-01-25T11:59:41.101Z,18.65
2023-01-25T12:02:29.900Z,18.20
2023-01-25T12:05:21.157Z,16.98
2023-01-25T12:07:58.740Z,16.52
2023-01-25T12:10:28.164Z,17.10
2023-01-25T12:12:57.627Z,17.70
2023-01-25T12:15:27.107Z,44.85
2023-01-25T12:18:31.606Z,66.97
2023-01-25T12:21:31.561Z,22.25
2023-01-25T12:24:37.477Z,16.70
2023-01-25T12:27:16.140Z,20.15
2023-01-25T12:29:49.808Z,18.73
2023-01-25T12:32:33.518Z,17.60
2023-01-25T12:35:11.355Z,24.45
2023-01-25T12:37:43.478Z,20.30
2023-01-25T12:40:15.365Z,20.63
2023-01-25T12:42:51.112Z,18.65
2023-01-25T12:45:24.519Z,17.58
2023-01-25T12:47:59.505Z,17.92
2023-01-25T12:50:30.560Z,17.50
2023-01-25T12:53:26.244Z,22.60
2023-01-25T12:55:54.318Z,19.17
2023-01-25T12:58:38.349Z,17.27
2023-01-25T13:01:26.868Z,18.55
2023-01-25T13:04:29.158Z,18.20
2023-01-25T13:07:08.656Z,17.85
2023-01-25T13:09:44.106Z,16.83
2023-01-25T13:12:12.630Z,17.25
2023-01-25T13:14:42.415Z,16.90
2023-01-25T13:17:24.699Z,20.42
2023-01-25T13:19:53.307Z,19.85
2023-01-25T13:22:44.854Z,18.80
2023-01-25T13:25:17.490Z,17.65
2023-01-25T13:27:44.268Z,18.27
2023-01-25T13:30:26.405Z,17.30
2023-01-25T13:32:56.333Z,16.60
2023-01-25T13:35:27.321Z,16.20
2023-01-25T13:38:31.348Z,15.70
2023-01-25T13:41:12.042Z,17.30
2023-01-25T13:43:40.880Z,17.25
2023-01-25T13:46:10.342Z,16.80
2023-01-25T13:48:46.535Z,17.02
2023-01-25T13:51:15.397Z,17.52
2023-01-25T13:53:43.261Z,16.95
2023-01-25T13:56:31.554Z,17.33
2023-01-25T13:58:58.446Z,17.83
2023-01-25T14:01:26.112Z,17.95
2023-01-25T14:04:02.200Z,17.08
2023-01-25T14:06:39.132Z,16.08
2023-01-25T14:09:20.779Z,15.98
2023-01-25T14:11:59.323Z,16.63
2023-01-25T14:14:34.807Z,15.93
2023-01-25T14:17:18.265Z,17.70
2023-01-25T14:19:56.057Z,16.00
2023-01-25T14:22:29.785Z,15.25
2023-01-25T14:25:18.452Z,14.77
2023-01-25T14:27:51.065Z,15.23
2023-01-25T14:30:18.060Z,17.33
2023-01-25T14:32:44.782Z,18.05
2023-01-25T14:35:42.492Z,18.98
2023-01-25T14:38:33.283Z,17.13
2023-01-25T14:41:16.449Z,16.52
2023-01-25T14:43:46.224Z,15.23
2023-01-25T14:46:23.656Z,15.65
2023-01-25T14:48:51.824Z,15.68
2023-01-25T14:51:30.300Z,16.15
2023-01-25T14:54:03.882Z,14.80
2023-01-25T14:56:34.971Z,16.67
2023-01-25T14:59:02.541Z,16.23
2023-01-25T15:01:40.867Z,15.40
2023-01-25T15:04:12.832Z,16.13
2023-01-25T15:06:50.842Z,15.43
2023-01-25T15:09:38.541Z,15.70
2023-01-25T15:12:17.156Z,14.48
2023-01-25T15:14:52.883Z,16.40
2023-01-25T15:17:46.024Z,16.85
2023-01-25T15:20:36.298Z,16.48
2023-01-25T15:23:23.157Z,15.65
2023-01-25T15:25:57.811Z,16.77
2023-01-25T15:28:27.684Z,16.13
2023-01-25T15:30:55.183Z,16.55
2023-01-25T15:33:29.844Z,15.95
2023-01-25T15:35:56.567Z,18.70
2023-01-25T15:38:24.392Z,16.17
2023-01-25T15:40:51.437Z,16.10
2023-01-25T15:43:19.788Z,17.73
2023-01-25T15:45:48.960Z,17.60
2023-01-25T15:48:19.578Z,16.45
2023-01-25T15:50:46.255Z,15.18
2023-01-25T15:53:16.131Z,14.70
2023-01-25T15:55:45.997Z,14.52
2023-01-25T15:58:26.489Z,15.05
2023-01-25T16:00:53.359Z,15.65
2023-01-25T16:03:22.760Z,15.90
2023-01-25T16:05:54.555Z,16.33
2023-01-25T16:08:21.367Z,16.02
2023-01-25T16:10:48.155Z,15.40
2023-01-25T16:13:14.964Z,16.15
2023-01-25T16:15:42.333Z,13.93
2023-01-25T16:18:14.159Z,15.25
2023-01-25T16:20:43.565Z,14.60
2023-01-25T16:23:14.607Z,13.88
2023-01-25T16:25:42.881Z,16.40
2023-01-25T16:28:16.606Z,14.73
2023-01-25T16:30:46.539Z,15.27
2023-01-25T16:33:13.348Z,14.27
2023-01-25T16:35:40.255Z,14.55
2023-01-25T16:38:06.983Z,14.65
2023-01-25T16:40:38.643Z,14.15
2023-01-25T16:43:05.828Z,15.85
2023-01-25T16:45:32.527Z,14.05
2023-01-25T16:47:59.136Z,14.35
2023-01-25T16:50:25.973Z,15.55
2023-01-25T16:52:54.385Z,13.32
2023-01-25T16:55:21.172Z,14.82
2023-01-25T16:57:51.713Z,17.08
2023-01-25T17:00:18.981Z,14.13
2023-01-25T17:02:58.285Z,14.60
2023-01-25T17:05:33.672Z,15.18
2023-01-25T17:08:00.502Z,16.80
2023-01-25T17:10:28.739Z,13.40
2023-01-25T17:12:55.412Z,13.75
2023-01-25T17:15:22.029Z,14.23
2023-01-25T17:17:48.986Z,13.52
2023-01-25T17:20:16.026Z,13.18
2023-01-25T17:22:44.227Z,15.00
2023-01-25T17:25:10.860Z,16.23
2023-01-25T17:27:37.446Z,17.25
2023-01-25T17:30:04.370Z,16.20
2023-01-25T17:32:32.068Z,16.92
2023-01-25T17:35:01.242Z,16.02
2023-01-25T17:37:27.960Z,17.50
2023-01-25T17:39:54.581Z,16.23
2023-01-25T17:42:22.060Z,15.40
2023-01-25T17:44:48.760Z,16.75
2023-01-25T17:47:15.452Z,17.20
2023-01-25T17:49:42.100Z,17.05
2023-01-25T17:52:08.865Z,16.23
2023-01-25T17:54:36.248Z,16.38
2023-01-25T17:57:02.864Z,16.20
2023-01-25T17:59:29.583Z,14.90
2023-01-25T18:01:56.422Z,14.98
2023-01-25T18:04:23.141Z,17.27
2023-01-25T18:06:49.925Z,16.65
2023-01-25T18:09:16.781Z,17.48
2023-01-25T18:11:43.423Z,15.30
2023-01-25T18:14:16.615Z,14.65
2023-01-25T18:16:44.415Z,15.13
2023-01-25T18:19:11.460Z,14.98
2023-01-25T18:21:38.632Z,14.38
2023-01-25T18:24:22.333Z,14.88
2023-01-25T18:26:50.252Z,15.35
2023-01-25T18:29:16.914Z,16.67
2023-01-25T18:31:43.651Z,15.55
2023-01-25T18:34:10.476Z,17.40
2023-01-25T18:36:37.162Z,17.25
2023-01-25T18:39:06.834Z,16.92
2023-01-25T18:41:33.499Z,16.20
2023-01-25T18:44:00.280Z,14.75
2023-01-25T18:46:26.949Z,16.25
2023-01-25T18:48:53.598Z,31.80
2023-01-25T18:51:22.450Z,19.13
2023-01-25T18:53:49.546Z,19.13
2023-01-25T18:56:21.228Z,15.02
2023-01-25T18:58:48.280Z,17.33
2023-01-25T19:01:17.308Z,15.73
2023-01-25T19:03:45.239Z,27.38
2023-01-25T19:06:12.559Z,20.23
2023-01-25T19:08:41.383Z,17.38
2023-01-25T19:11:14.271Z,17.90
2023-01-25T19:13:42.503Z,18.33
2023-01-25T19:16:13.901Z,16.15
2023-01-25T19:18:51.976Z,17.45
2023-01-25T19:21:24.861Z,16.58
2023-01-25T19:23:52.804Z,17.42
2023-01-25T19:26:21.786Z,19.15
2023-01-25T19:28:48.657Z,18.85
2023-01-25T19:31:22.341Z,17.35
2023-01-25T19:33:53.975Z,17.35
2023-01-25T19:36:20.900Z,17.77
2023-01-25T19:38:48.815Z,17.55
2023-01-25T19:41:16.630Z,17.00
2023-01-25T19:43:43.772Z,17.95
2023-01-25T19:46:14.765Z,18.80
2023-01-25T19:48:42.746Z,16.33
2023-01-25T19:51:11.586Z,16.50
2023-01-25T19:53:39.488Z,17.58
2023-01-25T19:56:08.278Z,17.08
2023-01-25T19:58:35.197Z,18.58
2023-01-25T20:01:09.842Z,18.50
2023-01-25T20:03:36.938Z,18.33
2023-01-25T20:06:05.087Z,18.45
2023-01-25T20:08:36.949Z,18.15
2023-01-25T20:11:10.352Z,17.08
2023-01-25T20:13:36.997Z,15.82
2023-01-25T20:16:04.201Z,17.30
2023-01-25T20:18:32.169Z,18.42
2023-01-25T20:21:00.948Z,17.42
2023-01-25T20:23:30.918Z,19.17
2023-01-25T20:26:09.257Z,18.00
2023-01-25T20:28:37.049Z,16.80
2023-01-25T20:31:04.998Z,17.63
2023-01-25T20:33:34.767Z,16.20
2023-01-25T20:36:02.693Z,15.25
2023-01-25T20:38:33.407Z,17.00
2023-01-25T20:41:06.579Z,16.77
2023-01-25T20:43:33.999Z,16.70
2023-01-25T20:46:02.292Z,17.20
2023-01-25T20:48:31.092Z,18.63
2023-01-25T20:51:02.066Z,17.90
2023-01-25T20:53:29.895Z,17.88
2023-01-25T20:55:58.041Z,18.13
2023-01-25T20:58:25.524Z,17.52
2023-01-25T21:00:52.584Z,19.10
2023-01-25T21:03:19.328Z,18.13
2023-01-25T21:05:57.631Z,18.23
2023-01-25T21:08:25.504Z,17.88
2023-01-25T21:10:55.168Z,19.45
2023-01-25T21:13:22.848Z,26.25
2023-01-25T21:16:04.456Z,19.75
2023-01-25T21:18:48.421Z,18.92
2023-01-25T21:21:29.489Z,18.52
2023-01-25T21:23:59.680Z,19.85
2023-01-25T21:26:29.270Z,18.77
2023-01-25T21:28:56.316Z,19.10
2023-01-25T21:31:26.004Z,33.28
2023-01-25T21:33:53.997Z,22.10
2023-01-25T21:36:20.790Z,23.05
2023-01-25T21:38:49.356Z,21.52
2023-01-25T21:41:24.593Z,20.48
2023-01-25T21:44:11.807Z,22.65
2023-01-25T21:46:38.773Z,20.85
2023-01-25T21:49:28.550Z,21.52
2023-01-25T21:51:59.070Z,21.55
2023-01-25T21:54:34.878Z,23.13
2023-01-25T21:57:04.822Z,22.33
2023-01-25T21:59:31.613Z,24.85
2023-01-25T22:01:58.209Z,24.10
2023-01-25T22:04:25.549Z,21.27
2023-01-25T22:06:52.606Z,21.60
2023-01-25T22:09:19.853Z,21.20
2023-01-25T22:11:46.859Z,20.70
2023-01-25T22:14:14.546Z,20.55
2023-01-25T22:16:41.457Z,20.55
2023-01-25T22:19:08.175Z,21.90
2023-01-25T22:21:34.785Z,22.13
2023-01-25T22:24:04.102Z,21.23
2023-01-25T22:26:42.556Z,22.63
2023-01-25T22:29:09.575Z,21.60
2023-01-25T22:31:36.319Z,20.20
2023-01-25T22:34:03.961Z,20.02
2023-01-25T22:36:31.167Z,19.80
2023-01-25T22:38:59.969Z,20.50
2023-01-25T22:41:29.192Z,22.42
2023-01-25T22:43:55.817Z,22.50
2023-01-25T22:46:24.563Z,22.20
2023-01-25T22:48:51.249Z,20.40
2023-01-25T22:51:25.678Z,22.02
2023-01-25T22:53:53.354Z,22.25
2023-01-25T22:56:31.975Z,20.70
2023-01-25T22:59:10.155Z,22.40
2023-01-25T23:01:36.785Z,19.67
2023-01-25T23:04:03.683Z,23.55
2023-01-25T23:06:35.623Z,22.48
2023-01-25T23:09:05.397Z,19.67
2023-01-25T23:11:37.852Z,19.67
2023-01-25T23:14:25.628Z,18.80
2023-01-25T23:16:52.358Z,18.83
2023-01-25T23:19:19.273Z,18.65
2023-01-25T23:21:45.925Z,20.15
2023-01-25T23:24:12.638Z,20.08
2023-01-25T23:26:39.769Z,20.73
2023-01-25T23:29:12.036Z,19.00
2023-01-25T23:31:38.715Z,20.08
2023-01-25T23:34:06.581Z,19.60
2023-01-25T23:36:35.875Z,19.35
2023-01-25T23:39:03.229Z,19.83
2023-01-25T23:41:30.459Z,20.52
2023-01-25T23:43:57.953Z,19.65
2023-01-25T23:46:25.378Z,21.42
2023-01-25T23:48:52.495Z,20.05
2023-01-25T23:51:19.659Z,20.40
2023-01-25T23:53:46.761Z,20.70
2023-01-25T23:56:18.976Z,20.25
2023-01-25T23:58:46.808Z,19.48
